Time;durP1;ratioP1;P1;durP2;ratioP2;P2;SDS_P1;SDS_P2;PMS_P1;PMS_P2;Temp;Humidity;BMP_temperature;BMP_pressure;BME280_temperature;BME280_humidity;BME280_pressure;Samples;Min_cycle;Max_cycle;Signal;HPM_P1;HPM_P2
2023/10/09 00:01:01;;;;;;;24.30;18.80;;;;;;;13.71;100.00;101971.22;5053099;28;20036;-84
2023/10/09 00:03:27;;;;;;;22.05;18.85;;;;;;;13.69;100.00;101970.47;5052694;28;20048;-84
2023/10/09 00:05:53;;;;;;;23.13;18.17;;;;;;;13.70;100.00;101970.38;5052518;28;20029;-84
2023/10/09 00:08:32;;;;;;;25.15;18.33;;;;;;;13.69;100.00;101963.41;5053224;28;20084;-85
2023/10/09 00:11:13;;;;;;;26.88;19.52;;;;;;;13.76;100.00;101959.38;5067126;28;20032;-84
2023/10/09 00:13:52;;;;;;;26.70;18.65;;;;;;;13.77;100.00;101955.75;5054191;28;20028;-84
2023/10/09 00:16:34;;;;;;;32.55;20.77;;;;;;;13.85;100.00;101949.09;5053073;28;20052;-83
2023/10/09 00:19:17;;;;;;;27.95;20.23;;;;;;;13.86;100.00;101934.91;5052424;28;20029;-84
2023/10/09 00:21:49;;;;;;;25.42;18.75;;;;;;;13.89;100.00;101938.19;5065647;28;20035;-84
2023/10/09 00:24:24;;;;;;;;;;;;;;;13.98;100.00;101955.19;5072303;28;20110;-84
2023/10/09 00:27:11;;;;;;;25.95;19.30;;;;;;;13.94;100.00;101951.94;5048820;28;19971;-83
2023/10/09 00:29:44;;;;;;;24.42;19.10;;;;;;;13.98;100.00;101950.75;5051386;28;20033;-84
2023/10/09 00:32:22;;;;;;;23.30;18.58;;;;;;;13.97;100.00;101949.06;5071659;28;20361;-84
2023/10/09 00:34:50;;;;;;;26.08;18.55;;;;;;;13.99;100.00;101933.06;5055102;28;20025;-85
2023/10/09 00:37:16;;;;;;;27.55;19.60;;;;;;;14.04;100.00;101921.25;5072035;28;20068;-84
2023/10/09 00:39:45;;;;;;;24.10;18.38;;;;;;;14.03;100.00;101918.69;5054009;28;20470;-84
2023/10/09 00:42:14;;;;;;;26.40;18.65;;;;;;;14.11;100.00;101929.56;5055340;28;20085;-84
2023/10/09 00:44:41;;;;;;;26.50;19.38;;;;;;;14.16;100.00;101918.66;5049518;28;20106;-84
2023/10/09 00:47:21;;;;;;;25.27;18.85;;;;;;;14.18;100.00;101916.75;5072387;28;20025;-84
2023/10/09 00:50:20;;;;;;;26.05;18.70;;;;;;;14.22;100.00;101911.13;5061637;28;21124;-83
2023/10/09 00:52:50;;;;;;;24.33;18.45;;;;;;;14.25;100.00;101915.34;5067411;28;20490;-83
2023/10/09 00:55:27;;;;;;;25.60;19.33;;;;;;;14.26;100.00;101919.69;5049085;28;20072;-83
2023/10/09 00:57:59;;;;;;;26.77;19.58;;;;;;;14.27;100.00;101932.81;5068651;28;20032;-84
2023/10/09 01:08:43;;;;;;;24.15;17.85;;;;;;;14.29;100.00;101917.66;5064436;28;20051;-84
2023/10/09 01:11:21;;;;;;;25.75;18.08;;;;;;;14.29;100.00;101924.75;5068701;28;20124;-85
2023/10/09 01:16:17;;;;;;;25.63;19.33;;;;;;;14.35;100.00;101916.34;5071408;28;20058;-84
2023/10/09 01:18:49;;;;;;;22.48;17.98;;;;;;;14.36;100.00;101918.88;5060599;28;20039;-84
2023/10/09 01:21:15;;;;;;;24.35;17.85;;;;;;;14.35;100.00;101917.19;5031663;28;20087;-84
2023/10/09 01:24:03;;;;;;;27.50;18.13;;;;;;;14.36;100.00;101918.03;5034886;28;20460;-85
2023/10/09 01:26:34;;;;;;;23.17;17.33;;;;;;;14.37;100.00;101917.09;5050468;28;20029;-86
2023/10/09 01:29:00;;;;;;;25.88;17.30;;;;;;;14.37;100.00;101925.03;5064259;28;20021;-85
2023/10/09 01:31:27;;;;;;;29.08;17.33;;;;;;;14.38;100.00;101929.38;5062114;28;20758;-85
2023/10/09 01:33:59;;;;;;;21.02;17.00;;;;;;;14.40;100.00;101924.81;5050918;28;20104;-84
2023/10/09 01:36:31;;;;;;;19.40;17.20;;;;;;;14.40;100.00;101938.88;5050539;28;20020;-83
2023/10/09 01:39:25;;;;;;;20.73;17.05;;;;;;;14.43;100.00;101939.69;5051084;28;20279;-84
2023/10/09 01:42:05;;;;;;;21.50;16.88;;;;;;;14.37;100.00;101933.81;5056535;28;20017;-83
2023/10/09 01:44:35;;;;;;;26.80;17.33;;;;;;;14.34;100.00;101922.63;5056809;28;20027;-84
2023/10/09 01:47:07;;;;;;;21.58;16.92;;;;;;;14.34;100.00;101923.44;5058996;28;20017;-85
2023/10/09 01:49:35;;;;;;;20.45;16.83;;;;;;;14.35;100.00;101924.31;5050803;28;20065;-83
2023/10/09 01:52:07;;;;;;;24.42;16.63;;;;;;;14.36;100.00;101924.19;5061337;28;20362;-83
2023/10/09 01:54:36;;;;;;;22.17;16.83;;;;;;;14.35;100.00;101919.84;5057493;28;20043;-84
2023/10/09 01:57:05;;;;;;;21.73;16.23;;;;;;;14.35;100.00;101922.50;5068231;28;20047;-83
2023/10/09 01:59:37;;;;;;;22.83;16.23;;;;;;;14.36;100.00;101920.69;5070114;28;20095;-84
2023/10/09 02:02:25;;;;;;;23.38;17.10;;;;;;;14.31;100.00;101907.78;5062410;28;20115;-83
2023/10/09 02:04:49;;;;;;;22.52;16.80;;;;;;;14.35;100.00;101919.84;5053518;28;20025;-83
2023/10/09 02:07:22;;;;;;;23.30;16.73;;;;;;;14.37;100.00;101917.94;5050526;28;20029;-84
2023/10/09 02:09:47;;;;;;;;;;;;;;;14.47;100.00;101919.97;5060866;28;20031;-83
2023/10/09 02:12:13;;;;;;;22.30;16.90;;;;;;;14.38;100.00;101919.63;5065734;28;20006;-84
2023/10/09 02:14:41;;;;;;;21.85;16.60;;;;;;;14.36;100.00;101916.25;5070941;28;20031;-85
2023/10/09 02:17:28;;;;;;;24.13;17.15;;;;;;;14.36;100.00;101916.25;5062301;28;20025;-83
2023/10/09 02:19:53;;;;;;;22.40;17.02;;;;;;;14.35;100.00;101917.19;5047958;28;20021;-83
2023/10/09 02:22:19;;;;;;;23.27;17.15;;;;;;;14.35;100.00;101914.56;5045474;28;20037;-85
2023/10/09 02:30:19;;;;;;;24.40;17.40;;;;;;;14.38;100.00;101914.31;5052468;28;20123;-84
2023/10/09 02:32:49;;;;;;;21.92;17.40;;;;;;;14.39;100.00;101904.59;5049372;28;20131;-84
2023/10/09 02:35:28;;;;;;;21.45;17.48;;;;;;;14.38;100.00;101893.16;5067409;28;20107;-84
2023/10/09 02:37:53;;;;;;;22.73;17.15;;;;;;;14.36;100.00;101884.47;5051697;28;20032;-84
2023/10/09 02:40:24;;;;;;;22.67;17.33;;;;;;;14.36;100.00;101884.47;5040001;28;20037;-84
2023/10/09 02:42:49;;;;;;;21.48;16.75;;;;;;;14.39;100.00;101886.91;5031065;28;20032;-83
2023/10/09 02:45:17;;;;;;;22.05;17.15;;;;;;;14.37;100.00;101875.56;5032583;28;20405;-83
2023/10/09 02:47:43;;;;;;;20.95;15.95;;;;;;;14.35;100.00;101866.91;5049308;28;20035;-85
2023/10/09 02:50:09;;;;;;;20.83;16.30;;;;;;;14.39;100.00;101878.94;5061979;28;20651;-83
2023/10/09 02:52:40;;;;;;;24.77;17.13;;;;;;;14.39;100.00;101884.25;5067377;28;20036;-83
2023/10/09 02:55:12;;;;;;;21.48;16.63;;;;;;;14.38;100.00;101877.25;5050319;28;20083;-83
2023/10/09 02:57:38;;;;;;;21.83;16.50;;;;;;;14.37;100.00;101880.88;5049897;28;20508;-83
2023/10/09 03:00:09;;;;;;;22.38;16.65;;;;;;;14.38;100.00;101877.25;5049617;28;20044;-84
2023/10/09 03:02:39;;;;;;;23.15;16.63;;;;;;;14.35;100.00;101882.78;5050512;28;20086;-84
2023/10/09 03:05:06;;;;;;;20.50;16.63;;;;;;;14.37;100.00;101883.50;5049376;28;20029;-84
2023/10/09 03:07:34;;;;;;;21.70;16.13;;;;;;;14.35;100.00;101887.22;5050011;28;20586;-84
2023/10/09 03:09:59;;;;;;;21.70;16.38;;;;;;;14.37;100.00;101888.81;5051527;28;21212;-84
2023/10/09 03:12:27;;;;;;;26.38;17.52;;;;;;;14.37;100.00;101891.47;5067809;28;20074;-84
2023/10/09 03:14:54;;;;;;;19.92;15.77;;;;;;;14.38;100.00;101881.72;5062670;28;20028;-84
2023/10/09 03:17:20;;;;;;;25.55;16.17;;;;;;;14.37;100.00;101886.16;5056756;28;20025;-85
2023/10/09 03:19:45;;;;;;;20.77;15.93;;;;;;;14.38;100.00;101873.75;5038292;28;20033;-84
2023/10/09 03:22:11;;;;;;;24.33;17.42;;;;;;;14.39;100.00;101865.72;5044311;28;20020;-83
2023/10/09 03:24:44;;;;;;;24.27;16.42;;;;;;;14.40;100.00;101855.97;5050556;28;20024;-85
2023/10/09 03:27:11;;;;;;;23.42;17.02;;;;;;;14.40;100.00;101851.50;5049556;28;20028;-84
2023/10/09 03:29:37;;;;;;;22.48;16.17;;;;;;;14.39;100.00;101849.81;5073337;28;20032;-81
2023/10/09 03:32:03;;;;;;;22.58;16.48;;;;;;;14.38;100.00;101845.47;5083467;28;20024;-83
2023/10/09 03:34:30;;;;;;;23.17;17.48;;;;;;;14.40;100.00;101854.16;5065713;28;20025;-84
2023/10/09 03:37:06;;;;;;;21.45;16.60;;;;;;;14.39;100.00;101852.47;5052753;28;20024;-84
2023/10/09 03:39:47;;;;;;;22.45;18.08;;;;;;;14.38;100.00;101845.47;5070071;28;20025;-84
2023/10/09 03:42:19;;;;;;;22.98;16.45;;;;;;;14.36;100.00;101847.41;5053144;28;20074;-87
2023/10/09 03:44:53;;;;;;;22.40;16.98;;;;;;;14.37;100.00;101841.16;5056134;28;20040;-86
2023/10/09 03:47:22;;;;;;;20.65;16.35;;;;;;;14.35;100.00;101845.72;5053607;28;20021;-84
2023/10/09 03:49:52;;;;;;;23.80;17.25;;;;;;;14.34;100.00;101849.31;5073395;28;20013;-86
2023/10/09 03:52:18;;;;;;;22.48;17.05;;;;;;;14.34;100.00;101844.03;5071799;28;20079;-87
2023/10/09 03:54:46;;;;;;;22.77;16.95;;;;;;;14.32;100.00;101835.34;5062187;28;20028;-85
2023/10/09 03:57:19;;;;;;;21.20;17.10;;;;;;;14.32;100.00;101839.81;5080617;28;20056;-87
2023/10/09 03:59:48;;;;;;;21.05;16.33;;;;;;;14.29;100.00;101840.88;5094987;28;20025;-84
2023/10/09 04:02:14;;;;;;;26.02;17.63;;;;;;;14.31;100.00;101844.25;5089817;28;20124;-82
2023/10/09 04:04:45;;;;;;;28.70;17.83;;;;;;;14.30;100.00;101841.72;5059611;28;20005;-82
2023/10/09 04:07:11;;;;;;;22.25;17.55;;;;;;;14.28;100.00;101851.59;5089629;28;20047;-83
2023/10/09 04:09:39;;;;;;;22.38;17.13;;;;;;;14.30;100.00;101842.56;5085555;28;20020;-84
2023/10/09 04:14:51;;;;;;;22.27;17.17;;;;;;;14.29;100.00;101851.47;5077727;28;20033;-83
2023/10/09 04:19:48;;;;;;;22.80;17.40;;;;;;;14.28;100.00;101841.84;5076351;28;20025;-83
2023/10/09 04:22:26;;;;;;;21.60;16.63;;;;;;;14.27;100.00;101841.94;5066354;28;20036;-83
2023/10/09 04:24:52;;;;;;;22.38;17.42;;;;;;;14.27;100.00;101832.22;5084017;28;20012;-83
2023/10/09 04:27:17;;;;;;;23.55;17.60;;;;;;;14.28;100.00;101827.75;5094140;28;20033;-83
2023/10/09 04:29:47;;;;;;;21.35;16.80;;;;;;;14.27;100.00;101818.97;5092229;28;20032;-84
2023/10/09 04:32:15;;;;;;;22.08;17.00;;;;;;;14.28;100.00;101818.00;5071833;28;20046;-84
2023/10/09 04:34:54;;;;;;;22.02;17.52;;;;;;;14.29;100.00;101827.63;5064778;28;20046;-84
2023/10/09 04:37:36;;;;;;;21.90;17.50;;;;;;;14.29;100.00;101854.13;5056405;28;20025;-84
2023/10/09 04:40:41;;;;;;;22.63;17.30;;;;;;;14.29;100.00;101859.41;5036192;28;20052;-86
2023/10/09 04:42:59;;;;;;;21.30;16.75;;;;;;;14.28;100.00;101862.16;5039001;28;20120;-83
2023/10/09 04:48:11;;;;;;;23.00;17.30;;;;;;;14.29;100.00;101872.66;5032725;28;20442;-84
2023/10/09 04:50:45;;;;;;;24.25;17.85;;;;;;;14.32;100.00;101872.41;5067436;28;20028;-84
2023/10/09 04:55:44;;;;;;;21.33;16.77;;;;;;;14.33;100.00;101866.16;5055904;28;20040;-83
2023/10/09 04:58:17;;;;;;;23.33;16.77;;;;;;;14.33;100.00;101847.63;5071255;28;20067;-84
2023/10/09 05:01:02;;;;;;;24.63;18.40;;;;;;;14.33;100.00;101844.97;5061987;28;20039;-84
2023/10/09 05:03:29;;;;;;;21.45;17.33;;;;;;;14.34;100.00;101849.31;5036000;28;20037;-84
2023/10/09 05:06:20;;;;;;;25.10;19.02;;;;;;;14.35;100.00;101851.00;5054226;28;20021;-84
2023/10/09 05:08:48;;;;;;;22.98;17.83;;;;;;;14.36;100.00;101847.41;5068844;28;20064;-84
2023/10/09 05:14:12;;;;;;;23.45;17.60;;;;;;;14.37;100.00;101854.38;5070059;28;20074;-84
2023/10/09 05:16:53;;;;;;;23.27;17.75;;;;;;;14.34;100.00;101872.31;5055960;28;20017;-84
2023/10/09 05:19:41;;;;;;;21.60;17.55;;;;;;;14.36;100.00;101858.00;5054070;28;20021;-84
2023/10/09 05:22:56;;;;;;;22.95;17.55;;;;;;;14.36;100.00;101850.06;5044879;28;20033;-84
2023/10/09 05:25:02;;;;;;;23.55;17.52;;;;;;;14.39;100.00;101868.34;5057136;28;20040;-84
2023/10/09 05:30:25;;;;;;;22.40;18.02;;;;;;;14.39;100.00;101868.34;5027942;28;20048;-84
2023/10/09 05:32:55;;;;;;;25.42;18.60;;;;;;;14.40;100.00;101870.03;5050966;28;20020;-84
2023/10/09 05:35:39;;;;;;;24.30;19.05;;;;;;;14.43;100.00;101884.09;5051779;28;20032;-84
2023/10/09 05:38:14;;;;;;;25.50;18.25;;;;;;;14.43;100.00;101884.94;5069071;28;20025;-84
2023/10/09 05:40:43;;;;;;;29.55;19.63;;;;;;;14.45;100.00;101893.59;5041274;28;20032;-84
2023/10/09 05:43:59;;;;;;;23.13;19.58;;;;;;;14.44;100.00;101891.06;5062778;28;20486;-87
2023/10/09 05:46:09;;;;;;;24.30;18.50;;;;;;;14.45;100.00;101893.59;5068504;28;20435;-84
2023/10/09 05:51:12;;;;;;;24.83;19.08;;;;;;;14.47;100.00;101893.50;5069938;28;20033;-84
2023/10/09 06:07:13;;;;;;;27.38;20.17;;;;;;;14.54;100.00;101919.41;5049151;28;20040;-84
2023/10/09 06:09:52;;;;;;;30.95;22.27;;;;;;;14.56;100.00;101921.94;5063628;28;20024;-82
2023/10/09 06:12:33;;;;;;;27.20;20.92;;;;;;;14.55;100.00;101920.25;5056889;28;20054;-82
2023/10/09 06:17:44;;;;;;;29.17;22.02;;;;;;;14.59;100.00;101916.41;5042446;28;20044;-82
2023/10/09 06:20:50;;;;;;;25.80;21.33;;;;;;;14.58;100.00;101906.78;5068847;28;20020;-83
2023/10/09 06:22:58;;;;;;;29.70;21.33;;;;;;;14.62;100.00;101902.94;5038917;28;20033;-83
2023/10/09 06:25:32;;;;;;;33.85;22.35;;;;;;;14.62;100.00;101898.47;5049400;28;20091;-83
2023/10/09 06:27:58;;;;;;;26.77;22.10;;;;;;;14.63;100.00;101901.97;5051589;28;20032;-86
2023/10/09 06:30:24;;;;;;;32.80;22.90;;;;;;;14.65;100.00;101910.66;5069409;28;20024;-85
2023/10/09 06:35:30;;;;;;;28.25;22.33;;;;;;;14.68;100.00;101905.13;5030193;28;20128;-82
2023/10/09 06:43:09;;;;;;;31.35;22.27;;;;;;;14.72;100.00;101919.84;5055217;28;19912;-84
2023/10/09 06:45:43;;;;;;;30.88;22.13;;;;;;;14.73;100.00;101919.72;5049824;28;20021;-82
2023/10/09 06:50:58;;;;;;;31.27;22.27;;;;;;;14.77;100.00;101915.03;5050045;28;20036;-82
2023/10/09 06:53:58;;;;;;;30.75;22.83;;;;;;;14.76;100.00;101908.03;5049372;28;20029;-82
2023/10/09 06:56:22;;;;;;;27.52;21.98;;;;;;;14.77;100.00;101912.38;5051142;28;20070;-84
2023/10/09 06:58:48;;;;;;;33.35;22.77;;;;;;;14.78;100.00;101898.19;5048538;28;20021;-83
2023/10/09 07:03:53;;;;;;;29.88;21.55;;;;;;;14.81;100.00;101890.03;5049848;28;20464;-85
2023/10/09 07:17:00;;;;;;;37.08;22.73;;;;;;;14.92;100.00;101850.31;5038652;28;20435;-83
2023/10/09 07:22:23;;;;;;;32.05;21.85;;;;;;;14.97;100.00;101853.44;5049383;28;20035;-83
2023/10/09 07:27:48;;;;;;;32.70;22.83;;;;;;;15.04;100.00;101859.97;5069694;28;20059;-82
2023/10/09 07:32:55;;;;;;;28.83;20.73;;;;;;;15.05;100.00;101888.16;5053721;28;20126;-82
2023/10/09 07:35:57;;;;;;;26.83;20.02;;;;;;;15.05;100.00;101913.81;5051950;28;20484;-83
2023/10/09 07:38:20;;;;;;;30.58;21.38;;;;;;;15.09;100.00;101933.81;5071078;28;20055;-82
2023/10/09 07:43:39;;;;;;;27.02;20.83;;;;;;;15.09;100.00;101947.06;5050078;28;20041;-82
2023/10/09 07:49:12;;;;;;;29.58;21.38;;;;;;;15.14;100.00;101954.69;5024700;28;20033;-82
2023/10/09 07:51:43;;;;;;;29.17;21.58;;;;;;;15.14;100.00;101949.38;5047660;28;20104;-82
2023/10/09 07:54:09;;;;;;;31.13;22.17;;;;;;;15.16;100.00;101931.56;5057899;28;20481;-82
2023/10/09 07:56:46;;;;;;;31.90;21.75;;;;;;;15.15;100.00;101920.09;5059482;28;20037;-83
2023/10/09 07:59:18;;;;;;;29.90;21.77;;;;;;;15.20;100.00;101906.50;5058858;28;20009;-82
2023/10/09 08:01:54;;;;;;;26.88;20.75;;;;;;;15.21;100.00;101911.72;5054643;28;20111;-81
2023/10/09 08:04:37;;;;;;;32.35;21.83;;;;;;;15.25;100.00;101913.16;5057510;28;20447;-81
2023/10/09 08:07:19;;;;;;;31.70;21.60;;;;;;;15.28;100.00;101917.38;5057809;28;20039;-82
2023/10/09 08:09:48;;;;;;;29.98;21.42;;;;;;;15.31;100.00;101925.09;5054171;28;20032;-82
2023/10/09 08:12:15;;;;;;;26.92;21.85;;;;;;;15.31;100.00;101925.09;5065671;28;20092;-82
2023/10/09 08:14:45;;;;;;;28.58;21.98;;;;;;;15.35;100.00;101919.44;5052563;28;20013;-83
2023/10/09 08:17:20;;;;;;;31.65;21.80;;;;;;;15.41;100.00;101920.78;5058312;28;20033;-81
2023/10/09 08:19:53;;;;;;;31.35;21.92;;;;;;;15.49;100.00;101922.81;5055306;28;20036;-82
2023/10/09 08:24:57;;;;;;;27.27;21.02;;;;;;;15.61;100.00;101924.56;5052713;28;20107;-82
2023/10/09 08:33:39;;;;;;;30.35;21.52;;;;;;;15.86;100.00;101907.56;5053722;28;20128;-82
2023/10/09 08:35:48;;;;;;;30.08;21.88;;;;;;;15.95;100.00;101904.16;5051005;28;20033;-84
2023/10/09 08:38:14;;;;;;;31.10;21.60;;;;;;;16.00;100.00;101904.63;5049602;28;20599;-82
2023/10/09 08:40:46;;;;;;;30.27;22.35;;;;;;;16.12;100.00;101905.50;5050455;28;20036;-82
2023/10/09 08:43:16;;;;;;;28.80;22.10;;;;;;;16.18;100.00;101905.00;5053226;28;20024;-81
2023/10/09 08:45:54;;;;;;;30.00;20.60;;;;;;;16.22;100.00;101907.28;5045957;28;20027;-84
2023/10/09 08:48:26;;;;;;;27.73;20.45;;;;;;;16.25;100.00;101904.38;5050603;28;20033;-80
2023/10/09 08:50:54;;;;;;;29.55;21.23;;;;;;;16.27;100.00;101899.78;5046912;28;20393;-87
2023/10/09 08:53:21;;;;;;;26.98;20.65;;;;;;;16.32;100.00;101901.19;5059317;28;20128;-86
2023/10/09 08:55:47;;;;;;;26.45;20.48;;;;;;;16.43;100.00;101898.53;5042736;28;20099;-87
2023/10/09 08:58:24;;;;;;;28.48;21.73;;;;;;;16.48;100.00;101891.88;5058734;28;20020;-87
2023/10/09 09:00:55;;;;;;;25.42;20.67;;;;;;;16.57;100.00;101898.25;5049515;28;20021;-86
2023/10/09 09:03:27;;;;;;;28.45;21.27;;;;;;;16.61;100.00;101907.63;5049259;28;20047;-86
2023/10/09 09:06:02;;;;;;;26.70;20.52;;;;;;;16.67;100.00;101901.84;5042444;28;20381;-85
2023/10/09 09:08:30;;;;;;;30.85;20.67;;;;;;;16.81;100.00;101906.00;5050991;28;20394;-87
2023/10/09 09:11:17;;;;;;;33.00;21.90;;;;;;;16.88;100.00;101904.56;5043788;28;20025;-86
2023/10/09 09:13:50;;;;;;;33.10;21.65;;;;;;;16.97;100.00;101902.94;5051217;28;20029;-86
2023/10/09 09:16:33;;;;;;;28.40;20.20;;;;;;;17.10;100.00;101909.72;5044941;28;20021;-86
2023/10/09 09:21:54;;;;;;;34.05;21.45;;;;;;;17.36;100.00;101925.31;5054136;28;20388;-87
2023/10/09 09:24:26;;;;;;;29.25;21.10;;;;;;;17.47;100.00;101934.03;5054403;28;20469;-87
2023/10/09 09:29:54;;;;;;;28.02;20.75;;;;;;;17.70;100.00;101944.56;5038761;28;20079;-86
2023/10/09 09:32:35;;;;;;;29.00;19.75;;;;;;;17.75;100.00;101943.19;5049059;28;20063;-87
2023/10/09 09:35:01;;;;;;;27.63;19.95;;;;;;;17.80;100.00;101948.97;5055089;28;20116;-85
2023/10/09 09:38:17;;;;;;;25.85;20.13;;;;;;;17.88;100.00;101952.78;5036174;28;20067;-86
2023/10/09 09:40:30;;;;;;;27.95;20.85;;;;;;;17.92;100.00;101949.69;5044649;28;20048;-86
2023/10/09 09:43:46;;;;;;;27.77;20.67;;;;;;;17.93;100.00;101946.06;5050114;28;20206;-88
2023/10/09 09:45:56;;;;;;;26.88;20.98;;;;;;;18.02;100.00;101958.59;5047693;28;20504;-88
2023/10/09 09:48:23;;;;;;;23.67;20.20;;;;;;;18.08;100.00;101966.03;5047077;28;20057;-87
2023/10/09 09:50:54;;;;;;;28.60;20.75;;;;;;;18.16;100.00;101974.19;5050308;28;20441;-88
2023/10/09 09:53:23;;;;;;;27.20;20.55;;;;;;;18.20;100.00;101968.59;5050533;28;20025;-88
2023/10/09 09:55:59;;;;;;;27.42;20.77;;;;;;;18.15;100.00;101971.66;5049301;28;20524;-88
2023/10/09 09:58:32;;;;;;;29.80;22.30;;;;;;;18.24;100.00;101972.69;5042178;28;20025;-87
2023/10/09 10:01:24;;;;;;;28.00;22.27;;;;;;;18.24;100.00;101970.00;5047033;28;20120;-87
2023/10/09 10:04:01;;;;;;;28.38;21.90;;;;;;;18.31;100.00;101971.16;5053324;28;20025;-88
2023/10/09 10:06:32;;;;;;;32.08;21.83;;;;;;;18.35;100.00;101977.88;5058280;28;20035;-88
2023/10/09 10:08:57;;;;;;;27.88;22.73;;;;;;;18.41;100.00;101966.69;5048842;28;20691;-88
2023/10/09 10:11:52;;;;;;;29.38;22.38;;;;;;;18.55;100.00;101979.63;5049161;28;20151;-88
2023/10/09 10:14:31;;;;;;;27.85;22.10;;;;;;;18.54;99.60;101967.28;5046707;28;20502;-88
2023/10/09 10:17:29;;;;;;;32.15;23.88;;;;;;;18.53;99.80;101980.75;5038896;28;20115;-87
2023/10/09 10:19:59;;;;;;;30.40;24.02;;;;;;;18.56;99.88;101975.16;5047580;28;20029;-89
2023/10/09 10:22:29;;;;;;;34.05;23.48;;;;;;;18.60;99.65;101966.72;5049407;28;20024;-88
2023/10/09 10:25:08;;;;;;;31.17;24.10;;;;;;;18.64;98.99;101972.66;5044382;28;20025;-89
2023/10/09 10:27:44;;;;;;;33.55;24.40;;;;;;;18.67;99.43;101973.22;5055401;28;20055;-89
2023/10/09 10:30:13;;;;;;;32.85;24.42;;;;;;;18.72;99.53;101973.66;5044732;28;20029;-89
2023/10/09 10:33:13;;;;;;;31.58;23.55;;;;;;;18.79;100.00;101977.44;5058584;28;20024;-89
2023/10/09 10:35:45;;;;;;;33.95;23.08;;;;;;;18.79;100.00;101968.59;5050673;28;20063;-88
2023/10/09 10:38:24;;;;;;;32.35;24.10;;;;;;;18.92;100.00;101968.34;5049688;28;20029;-88
2023/10/09 10:41:00;;;;;;;32.30;24.52;;;;;;;18.93;98.99;101968.19;5052009;28;20461;-89
2023/10/09 10:47:00;;;;;;;34.92;25.40;;;;;;;19.11;98.55;101962.97;5052727;28;20043;-90
2023/10/09 10:49:20;;;;;;;31.67;24.27;;;;;;;19.24;98.29;101966.22;5048898;28;20036;-89
2023/10/09 10:51:49;;;;;;;32.90;24.65;;;;;;;19.25;98.65;101957.22;5056352;28;20454;-89
2023/10/09 10:57:37;;;;;;;32.65;24.67;;;;;;;19.31;99.08;101962.00;5046286;28;20037;-87
2023/10/09 11:01:02;;;;;;;;;;;;;;;19.49;100.00;101958.56;5057259;28;20033;-87
2023/10/09 11:03:13;;;;;;;34.60;25.05;;;;;;;19.39;96.59;101953.25;5052885;28;19999;-85
2023/10/09 11:11:41;;;;;;;30.02;23.50;;;;;;;19.50;97.77;101965.59;5031067;28;20417;-85
2023/10/09 11:14:14;;;;;;;32.65;23.80;;;;;;;19.50;99.27;101976.28;5030748;28;20498;-86
2023/10/09 11:16:43;;;;;;;30.08;23.30;;;;;;;19.55;98.42;101974.03;5030981;28;20026;-82
2023/10/09 11:22:28;;;;;;;33.65;23.77;;;;;;;19.67;96.58;101971.06;5026576;28;20034;-85
2023/10/09 11:24:59;;;;;;;28.87;21.60;;;;;;;19.82;96.97;101971.44;5029902;28;20044;-85
2023/10/09 11:27:28;;;;;;;28.75;21.83;;;;;;;19.92;97.11;101961.56;5030050;28;20036;-86
2023/10/09 11:29:54;;;;;;;27.17;20.08;;;;;;;19.94;95.70;101959.56;5030986;28;20060;-86
2023/10/09 11:32:25;;;;;;;29.65;19.15;;;;;;;20.03;94.77;101953.38;5031337;28;20118;-85
2023/10/09 11:35:34;;;;;;;25.95;18.65;;;;;;;20.13;95.59;101957.81;5033341;28;20148;-82
2023/10/09 11:38:00;;;;;;;22.70;17.23;;;;;;;20.01;93.53;101955.34;5028659;28;20470;-85
2023/10/09 11:41:04;;;;;;;22.73;17.48;;;;;;;20.06;92.71;101954.06;5046901;28;20041;-86
2023/10/09 11:43:14;;;;;;;26.73;18.02;;;;;;;20.10;93.42;101948.28;5034916;28;20033;-85
2023/10/09 11:45:39;;;;;;;21.65;15.98;;;;;;;20.25;93.00;101956.63;5034485;28;20112;-84
2023/10/09 11:49:15;;;;;;;20.30;16.13;;;;;;;20.35;92.88;101946.69;5043283;28;20037;-85
2023/10/09 11:51:21;;;;;;;21.73;15.40;;;;;;;20.47;91.80;101955.41;5035165;28;20116;-85
2023/10/09 11:53:49;;;;;;;30.85;15.95;;;;;;;20.54;91.24;101954.66;5042335;28;20029;-81
2023/10/09 11:56:19;;;;;;;20.17;15.07;;;;;;;20.56;90.14;101955.34;5038809;28;20105;-84
2023/10/09 11:58:49;;;;;;;21.48;14.68;;;;;;;20.68;89.72;101955.09;5032006;28;20056;-85
2023/10/09 12:01:20;;;;;;;21.52;14.88;;;;;;;20.70;88.91;101956.63;5031838;28;20033;-86
2023/10/09 12:03:49;;;;;;;20.77;13.57;;;;;;;20.67;88.78;101958.78;5029883;28;20108;-84
2023/10/09 12:06:18;;;;;;;22.85;14.13;;;;;;;20.68;88.92;101958.63;5042107;28;20036;-85
2023/10/09 12:08:47;;;;;;;21.90;13.25;;;;;;;20.65;89.02;101964.28;5067006;28;20446;-84
2023/10/09 12:11:14;;;;;;;19.08;13.75;;;;;;;20.62;88.95;101953.88;5030649;28;20383;-84
2023/10/09 12:13:42;;;;;;;19.67;13.25;;;;;;;20.61;89.83;101958.38;5045424;28;20536;-85
2023/10/09 12:16:11;;;;;;;17.05;12.45;;;;;;;20.69;90.54;101959.47;5032816;28;20033;-84
2023/10/09 12:18:39;;;;;;;20.35;12.35;;;;;;;20.74;90.15;101941.97;5038482;28;20323;-85
2023/10/09 12:21:05;;;;;;;18.65;12.63;;;;;;;20.60;88.65;101946.00;5037618;28;20037;-85
2023/10/09 12:23:37;;;;;;;17.80;11.88;;;;;;;20.65;88.98;101949.06;5030697;28;20025;-84
2023/10/09 12:26:03;;;;;;;16.37;11.37;;;;;;;20.67;88.98;101945.41;5036645;28;20079;-85
2023/10/09 12:28:29;;;;;;;18.92;11.20;;;;;;;20.64;89.36;101938.53;5040386;28;20072;-85
2023/10/09 12:30:55;;;;;;;18.50;11.75;;;;;;;20.62;89.98;101938.69;5024926;28;20502;-85
2023/10/09 12:33:27;;;;;;;20.77;11.70;;;;;;;20.71;89.79;101941.41;5022667;28;20026;-85
2023/10/09 12:35:58;;;;;;;17.90;10.90;;;;;;;20.85;91.08;101948.94;5025133;28;20053;-85
2023/10/09 12:38:32;;;;;;;14.02;10.70;;;;;;;20.84;90.24;101948.09;5028782;28;20025;-85
2023/10/09 12:41:25;;;;;;;16.25;10.02;;;;;;;20.88;91.01;101943.28;5030566;28;20874;-84
2023/10/09 12:43:53;;;;;;;15.57;9.93;;;;;;;20.84;90.31;101932.03;5030384;28;20021;-85
2023/10/09 12:46:22;;;;;;;16.38;10.52;;;;;;;20.88;88.24;101935.25;5032126;28;20040;-85
2023/10/09 12:48:50;;;;;;;18.48;10.23;;;;;;;20.76;88.53;101936.44;5039224;28;20021;-85
2023/10/09 12:51:25;;;;;;;16.70;9.82;;;;;;;20.83;87.31;101926.84;5031831;28;20023;-85
2023/10/09 12:53:56;;;;;;;12.10;9.13;;;;;;;20.86;88.53;101921.19;5034368;28;20025;-84
2023/10/09 12:56:22;;;;;;;16.25;9.35;;;;;;;20.87;88.22;101917.50;5035285;28;20291;-85
2023/10/09 12:58:54;;;;;;;13.68;9.05;;;;;;;20.88;88.43;101911.16;5024056;28;20029;-84
2023/10/09 13:01:20;;;;;;;13.70;9.20;;;;;;;20.90;88.26;101906.50;5033878;28;20527;-86
2023/10/09 13:03:49;;;;;;;16.98;8.77;;;;;;;20.86;89.86;101897.94;5031582;28;20033;-85
2023/10/09 13:06:15;;;;;;;15.80;9.43;;;;;;;20.88;88.05;101895.13;5029919;28;20032;-78
2023/10/09 13:08:45;;;;;;;14.98;9.10;;;;;;;20.88;87.96;101900.47;5032045;28;20074;-80
2023/10/09 13:11:11;;;;;;;14.45;9.50;;;;;;;20.91;88.30;101905.50;5038818;28;20045;-81
2023/10/09 13:13:44;;;;;;;17.15;9.65;;;;;;;20.94;88.85;101905.19;5033572;28;20061;-83
2023/10/09 13:16:14;;;;;;;;;;;;;;;21.12;91.13;101902.47;5030785;28;20484;-83
2023/10/09 13:18:49;;;;;;;13.75;8.70;;;;;;;20.96;88.42;101908.56;5038490;28;19916;-80
2023/10/09 13:21:19;;;;;;;14.65;9.30;;;;;;;20.95;86.98;101898.84;5045843;28;20537;-80
2023/10/09 13:23:49;;;;;;;14.55;8.85;;;;;;;20.91;88.35;101889.44;5031207;28;20025;-79
2023/10/09 13:26:18;;;;;;;15.18;8.95;;;;;;;20.92;88.28;101901.81;5030632;28;20041;-80
2023/10/09 13:28:48;;;;;;;16.13;9.57;;;;;;;20.88;88.40;101906.66;5029192;28;20100;-79